Time;durP1;ratioP1;P1;durP2;ratioP2;P2;SDS_P1;SDS_P2;PMS_P1;PMS_P2;Temp;Humidity;BMP_temperature;BMP_pressure;BME280_temperature;BME280_humidity;BME280_pressure;Samples;Min_cycle;Max_cycle;Signal;HPM_P1;HPM_P2
2023/02/21 02:15:02;;;;;;;28.70;17.40;;;11.20;99.90;;;;;;5001651;28;20466;-85
2023/02/21 02:17:35;;;;;;;26.20;17.00;;;10.90;99.90;;;;;;4980855;28;20458;-82
2023/02/21 02:20:37;;;;;;;27.20;17.63;;;10.70;99.90;;;;;;4977482;28;20470;-84
2023/02/21 02:23:22;;;;;;;25.30;17.90;;;10.60;99.90;;;;;;4972609;28;20475;-85
2023/02/21 02:26:07;;;;;;;31.27;18.90;;;10.50;99.90;;;;;;4980848;28;20470;-84
2023/02/21 02:28:46;;;;;;;29.97;18.20;;;10.80;99.90;;;;;;4996059;28;20452;-86
2023/02/21 02:31:52;;;;;;;30.43;18.90;;;10.90;99.90;;;;;;4977376;28;20454;-85
2023/02/21 02:34:54;;;;;;;30.30;19.00;;;11.10;99.90;;;;;;4994435;28;20482;-85
2023/02/21 02:37:29;;;;;;;30.87;19.60;;;11.00;99.90;;;;;;4987176;28;20871;-84
2023/02/21 02:40:29;;;;;;;31.70;19.43;;;11.00;99.90;;;;;;4975471;28;21054;-84
2023/02/21 02:43:02;;;;;;;33.03;17.50;;;11.20;99.90;;;;;;5009405;28;20463;-86
2023/02/21 02:45:40;;;;;;;31.60;19.40;;;11.10;99.90;;;;;;5010715;28;20487;-85
2023/02/21 02:48:12;;;;;;;36.63;20.30;;;11.00;99.90;;;;;;5000220;28;20439;-86
2023/02/21 02:50:43;;;;;;;29.43;17.90;;;11.00;99.90;;;;;;4991160;28;20538;-85
2023/02/21 02:53:10;;;;;;;33.07;17.73;;;11.00;99.90;;;;;;5001391;28;20501;-84
2023/02/21 02:55:47;;;;;;;32.00;18.00;;;10.90;99.90;;;;;;4999950;28;20462;-84
2023/02/21 02:58:15;;;;;;;31.93;20.27;;;10.90;99.90;;;;;;4989660;28;20531;-83
2023/02/21 03:00:51;;;;;;;34.10;18.27;;;10.70;99.90;;;;;;4999514;28;20594;-84
2023/02/21 03:03:44;;;;;;;31.60;19.60;;;11.00;99.90;;;;;;4977466;28;20462;-83
2023/02/21 03:06:52;;;;;;;27.67;16.67;;;11.10;99.90;;;;;;4994513;28;20501;-87
2023/02/21 03:09:45;;;;;;;30.70;17.60;;;11.10;99.90;;;;;;4974738;28;20470;-85
2023/02/21 03:12:40;;;;;;;35.27;17.97;;;11.00;99.90;;;;;;4999445;28;20450;-84
2023/02/21 03:15:18;;;;;;;33.10;18.50;;;10.80;99.90;;;;;;4991814;28;20470;-85
2023/02/21 03:17:52;;;;;;;31.47;19.13;;;10.90;99.90;;;;;;4994329;28;20455;-83
2023/02/21 03:20:20;;;;;;;28.60;17.47;;;10.80;99.90;;;;;;4980427;28;21229;-84
2023/02/21 03:22:50;;;;;;;36.60;19.70;;;10.90;99.90;;;;;;4999961;28;20486;-84
2023/02/21 03:25:19;;;;;;;32.23;19.10;;;11.00;99.90;;;;;;4986559;28;20484;-85
2023/02/21 03:27:48;;;;;;;32.80;17.43;;;11.00;99.90;;;;;;4995343;28;20517;-84
2023/02/21 03:30:15;;;;;;;34.77;18.70;;;10.90;99.90;;;;;;4973835;28;20467;-85
2023/02/21 03:32:51;;;;;;;31.70;19.30;;;10.90;99.90;;;;;;5002207;28;20467;-85
2023/02/21 03:35:19;;;;;;;35.80;18.90;;;10.70;99.90;;;;;;4996826;28;20716;-88
2023/02/21 03:37:51;;;;;;;31.70;20.73;;;10.50;99.90;;;;;;5011453;28;20490;-85
2023/02/21 03:40:28;;;;;;;29.87;16.93;;;10.30;99.90;;;;;;5002985;28;20513;-84
2023/02/21 03:42:57;;;;;;;28.10;16.90;;;10.30;99.90;;;;;;4971862;28;20474;-84
2023/02/21 03:45:24;;;;;;;27.03;16.77;;;10.30;99.90;;;;;;4989337;28;20475;-83
2023/02/21 03:47:51;;;;;;;28.67;17.40;;;10.30;99.90;;;;;;4992503;28;20451;-84
2023/02/21 03:50:18;;;;;;;26.90;15.90;;;10.20;99.90;;;;;;4977533;28;20466;-83
2023/02/21 03:52:45;;;;;;;26.87;17.33;;;10.20;99.90;;;;;;4997390;28;20937;-84
2023/02/21 03:55:11;;;;;;;30.70;17.57;;;10.20;99.90;;;;;;4993045;28;20460;-84
2023/02/21 03:57:38;;;;;;;28.67;17.17;;;10.20;99.90;;;;;;4976293;28;20485;-84
2023/02/21 04:00:05;;;;;;;29.47;18.53;;;10.60;99.90;;;;;;4971666;28;20464;-84
2023/02/21 04:02:32;;;;;;;25.13;17.17;;;11.00;99.90;;;;;;4979678;28;20507;-83
2023/02/21 04:04:59;;;;;;;30.10;18.80;;;10.90;99.90;;;;;;4987464;28;20479;-84
2023/02/21 04:07:26;;;;;;;32.03;18.43;;;11.10;99.90;;;;;;4982418;28;20451;-83
2023/02/21 04:09:53;;;;;;;33.00;18.47;;;10.80;99.90;;;;;;4985616;28;20439;-86
2023/02/21 04:12:20;;;;;;;33.93;20.30;;;10.60;99.90;;;;;;5006933;28;21264;-82
2023/02/21 04:14:51;;;;;;;29.33;17.40;;;10.40;99.90;;;;;;4975134;28;20469;-81
2023/02/21 04:17:18;;;;;;;26.57;17.47;;;10.30;99.90;;;;;;4987139;28;20990;-83
2023/02/21 04:19:47;;;;;;;27.37;16.50;;;10.40;99.90;;;;;;4976265;28;20919;-83
2023/02/21 04:22:14;;;;;;;27.00;17.63;;;10.40;99.90;;;;;;4974881;28;20459;-82
2023/02/21 04:24:41;;;;;;;28.07;17.10;;;10.30;99.90;;;;;;4974112;28;20455;-83
2023/02/21 04:27:08;;;;;;;30.43;18.10;;;10.40;99.90;;;;;;4995702;28;20462;-84
2023/02/21 04:29:35;;;;;;;29.83;17.77;;;10.80;99.90;;;;;;4979866;28;20463;-84
2023/02/21 04:32:03;;;;;;;30.77;17.30;;;11.00;99.90;;;;;;5010815;28;20485;-84
2023/02/21 04:34:30;;;;;;;27.93;17.30;;;11.00;99.90;;;;;;5013862;28;20486;-84
2023/02/21 04:36:57;;;;;;;29.27;16.00;;;10.80;99.90;;;;;;4997536;28;20451;-83
2023/02/21 04:39:24;;;;;;;28.63;17.43;;;10.60;99.90;;;;;;4990789;28;20468;-84
2023/02/21 04:41:50;;;;;;;25.27;16.77;;;10.50;99.90;;;;;;5003668;28;20464;-85
2023/02/21 04:44:18;;;;;;;26.53;17.90;;;10.50;99.90;;;;;;5002741;28;20510;-83
2023/02/21 04:46:45;;;;;;;30.23;17.00;;;10.70;99.90;;;;;;4993675;28;20471;-85
2023/02/21 04:49:12;;;;;;;30.63;19.17;;;10.80;99.90;;;;;;4989739;28;20490;-85
2023/02/21 04:51:39;;;;;;;31.07;18.70;;;11.00;99.90;;;;;;4994960;28;20463;-84
2023/02/21 04:54:06;;;;;;;29.63;17.40;;;11.20;99.90;;;;;;4983495;28;20474;-83
2023/02/21 04:56:33;;;;;;;27.80;16.80;;;10.90;99.90;;;;;;4990295;28;20460;-83
2023/02/21 04:59:00;;;;;;;29.10;16.67;;;10.90;99.90;;;;;;4998981;28;20462;-83
2023/02/21 05:01:29;;;;;;;22.10;15.97;;;11.10;99.90;;;;;;4976379;28;20499;-83
2023/02/21 05:03:58;;;;;;;30.07;17.27;;;11.10;99.90;;;;;;4976726;28;20471;-83
2023/02/21 05:06:26;;;;;;;27.67;16.67;;;11.10;99.90;;;;;;4985617;28;20490;-84
2023/02/21 05:08:53;;;;;;;26.27;14.73;;;11.00;99.90;;;;;;4985342;28;20451;-83
2023/02/21 05:11:21;;;;;;;27.57;15.80;;;10.90;99.90;;;;;;4998928;28;20958;-83
2023/02/21 05:13:48;;;;;;;26.90;16.50;;;10.90;99.90;;;;;;4977871;28;20486;-84
2023/02/21 05:16:15;;;;;;;25.27;16.20;;;10.90;99.90;;;;;;4985301;28;20454;-83
2023/02/21 05:18:44;;;;;;;26.23;15.13;;;10.80;99.90;;;;;;4996839;28;20463;-81
2023/02/21 05:21:11;;;;;;;26.83;15.87;;;10.70;99.90;;;;;;4982826;28;20485;-83
2023/02/21 05:23:39;;;;;;;25.90;15.90;;;10.90;99.90;;;;;;4995887;28;20590;-84
2023/02/21 05:26:09;;;;;;;22.33;14.23;;;10.90;99.90;;;;;;4995738;28;20708;-84
2023/02/21 05:28:37;;;;;;;31.50;17.20;;;10.60;99.90;;;;;;5008622;28;20455;-85
2023/02/21 05:31:05;;;;;;;21.17;13.90;;;10.40;99.90;;;;;;5017856;28;20452;-85
2023/02/21 05:33:32;;;;;;;24.33;14.47;;;10.30;99.90;;;;;;5016413;28;20454;-86
2023/02/21 05:36:00;;;;;;;22.37;14.10;;;10.20;99.90;;;;;;5001319;28;21426;-86
2023/02/21 05:38:27;;;;;;;28.20;16.90;;;10.20;99.90;;;;;;4988061;28;20460;-85
2023/02/21 05:40:57;;;;;;;22.70;15.27;;;10.20;99.90;;;;;;5008317;28;20435;-85
2023/02/21 05:43:32;;;;;;;23.47;14.87;;;10.10;99.90;;;;;;5013652;28;20467;-86
2023/02/21 05:46:06;;;;;;;24.30;14.73;;;10.30;99.90;;;;;;5018864;28;20505;-85
2023/02/21 05:48:33;;;;;;;22.03;13.87;;;10.30;99.90;;;;;;4998477;28;20449;-85
2023/02/21 05:51:03;;;;;;;24.93;15.70;;;10.30;99.90;;;;;;5012978;28;20443;-85
2023/02/21 05:53:30;;;;;;;21.70;14.33;;;10.70;99.90;;;;;;5013494;28;20466;-83
2023/02/21 05:56:00;;;;;;;22.00;15.00;;;10.60;99.90;;;;;;5004065;28;20478;-84
2023/02/21 05:58:30;;;;;;;22.70;15.50;;;10.80;99.90;;;;;;4969064;28;20471;-83
2023/02/21 06:00:59;;;;;;;21.20;14.90;;;10.70;99.90;;;;;;4998328;28;20454;-83
2023/02/21 06:03:26;;;;;;;26.53;16.53;;;10.50;99.90;;;;;;4997795;28;20483;-83
2023/02/21 06:05:54;;;;;;;21.60;15.20;;;10.60;99.90;;;;;;4978877;28;20490;-84
2023/02/21 06:08:21;;;;;;;23.10;15.83;;;10.50;99.90;;;;;;4988087;28;20475;-87
2023/02/21 06:10:56;;;;;;;21.70;15.10;;;10.30;99.90;;;;;;4990627;28;20452;-83
2023/02/21 06:13:23;;;;;;;22.33;15.47;;;10.30;99.90;;;;;;5001235;28;20467;-84
2023/02/21 06:15:49;;;;;;;20.23;14.60;;;10.20;99.90;;;;;;4981840;28;20490;-82
2023/02/21 06:18:16;;;;;;;24.40;16.17;;;10.10;99.90;;;;;;4985770;28;20455;-83
2023/02/21 06:20:43;;;;;;;22.93;15.07;;;10.20;99.90;;;;;;4994797;28;20494;-81
2023/02/21 06:23:11;;;;;;;25.83;16.30;;;10.20;99.90;;;;;;4983530;28;20471;-83
2023/02/21 06:25:41;;;;;;;23.63;15.10;;;10.10;99.90;;;;;;5004730;28;20478;-84
2023/02/21 06:28:09;;;;;;;24.10;14.90;;;10.10;99.90;;;;;;4968510;28;20473;-87
2023/02/21 06:30:38;;;;;;;22.73;15.13;;;10.20;99.90;;;;;;5014128;28;20467;-85
2023/02/21 06:33:07;;;;;;;23.57;15.70;;;10.20;99.90;;;;;;4995504;28;20486;-83
2023/02/21 06:35:38;;;;;;;25.50;15.87;;;10.10;99.90;;;;;;5002341;28;20546;-83
2023/02/21 06:38:05;;;;;;;25.50;16.27;;;10.10;99.90;;;;;;4995424;28;20459;-85
2023/02/21 06:40:32;;;;;;;24.50;16.00;;;10.10;99.90;;;;;;4986097;28;20459;-85
2023/02/21 06:42:59;;;;;;;25.63;15.80;;;10.10;99.90;;;;;;4995785;28;20511;-83
2023/02/21 06:45:29;;;;;;;24.30;15.33;;;10.10;99.90;;;;;;5001274;28;20797;-85
2023/02/21 06:48:03;;;;;;;24.93;15.83;;;10.10;99.90;;;;;;4975984;28;20483;-85
2023/02/21 06:50:37;;;;;;;21.70;15.13;;;10.00;99.90;;;;;;4976296;28;20456;-82
2023/02/21 06:53:04;;;;;;;23.63;17.07;;;10.00;99.90;;;;;;4978642;28;20548;-85
2023/02/21 06:55:34;;;;;;;28.50;16.00;;;10.00;99.90;;;;;;4981026;28;20455;-83
2023/02/21 06:58:01;;;;;;;25.73;16.83;;;10.00;99.90;;;;;;4982966;28;20471;-83
2023/02/21 07:00:35;;;;;;;23.93;15.73;;;10.10;99.90;;;;;;4979014;28;20457;-84
2023/02/21 07:03:02;;;;;;;29.23;17.30;;;10.00;99.90;;;;;;4988289;28;21019;-85
2023/02/21 07:05:37;;;;;;;27.50;18.70;;;10.00;99.90;;;;;;4992922;28;20448;-85
2023/02/21 07:08:08;;;;;;;29.77;16.93;;;10.20;99.90;;;;;;4994459;28;20465;-83
2023/02/21 07:10:46;;;;;;;29.67;18.23;;;10.30;99.90;;;;;;4996206;28;20452;-85
2023/02/21 07:13:18;;;;;;;31.67;18.40;;;10.30;99.90;;;;;;4981902;28;20487;-85
2023/02/21 07:15:48;;;;;;;28.70;16.97;;;10.20;99.90;;;;;;4999995;28;20458;-84
2023/02/21 07:18:17;;;;;;;30.37;18.50;;;10.10;99.90;;;;;;5018021;28;20447;-85
2023/02/21 07:20:45;;;;;;;33.97;18.57;;;10.10;99.90;;;;;;4996983;28;20458;-82
2023/02/21 07:23:17;;;;;;;32.87;18.97;;;10.10;99.90;;;;;;5002017;28;20502;-84
2023/02/21 07:25:44;;;;;;;27.60;18.10;;;10.00;99.90;;;;;;4981917;28;20571;-84
2023/02/21 07:28:14;;;;;;;29.27;17.97;;;10.10;99.90;;;;;;4985599;28;20459;-84
2023/02/21 07:31:02;;;;;;;26.90;18.50;;;10.00;99.90;;;;;;4989643;28;20470;-84
2023/02/21 07:33:35;;;;;;;32.80;18.50;;;10.00;99.90;;;;;;5001267;28;20573;-85
2023/02/21 07:36:05;;;;;;;34.83;19.80;;;10.00;99.90;;;;;;4999610;28;20454;-85
2023/02/21 07:38:38;;;;;;;32.40;19.67;;;10.10;99.90;;;;;;4977713;28;20460;-86
2023/02/21 07:41:07;;;;;;;34.80;19.63;;;10.10;99.90;;;;;;4987146;28;20474;-83
2023/02/21 07:43:42;;;;;;;35.83;20.60;;;10.00;99.90;;;;;;4988692;28;20861;-85
2023/02/21 07:46:27;;;;;;;36.03;19.20;;;10.00;99.90;;;;;;4984896;28;20481;-86
2023/02/21 07:48:56;;;;;;;31.83;20.03;;;10.00;99.90;;;;;;5011079;28;20581;-85
2023/02/21 07:51:27;;;;;;;38.27;20.60;;;10.10;99.90;;;;;;5001157;28;20522;-83
2023/02/21 07:53:54;;;;;;;36.23;20.20;;;10.10;99.90;;;;;;4985701;28;20481;-84
2023/02/21 07:56:25;;;;;;;37.17;20.83;;;10.10;99.90;;;;;;5005629;28;20451;-85
2023/02/21 07:58:53;;;;;;;35.77;20.20;;;10.20;99.90;;;;;;5003015;28;20455;-86
2023/02/21 08:01:30;;;;;;;33.57;19.40;;;10.10;99.90;;;;;;5012112;28;20471;-86
2023/02/21 08:03:57;;;;;;;34.03;19.80;;;10.10;99.90;;;;;;4998681;28;20525;-86
2023/02/21 08:06:28;;;;;;;34.00;18.23;;;10.10;99.90;;;;;;4999951;28;20470;-85
2023/02/21 08:09:03;;;;;;;37.27;20.27;;;10.10;99.90;;;;;;5015970;28;20482;-88
2023/02/21 08:11:31;;;;;;;29.87;17.60;;;10.00;99.90;;;;;;4997667;28;20451;-85
2023/02/21 08:13:58;;;;;;;32.30;19.53;;;10.00;99.90;;;;;;5006355;28;20508;-84
2023/02/21 08:16:27;;;;;;;32.00;19.40;;;10.10;99.90;;;;;;4995414;28;20616;-83
2023/02/21 08:18:54;;;;;;;31.20;17.53;;;10.10;99.90;;;;;;4966356;28;20439;-85
2023/02/21 08:21:22;;;;;;;27.73;18.33;;;10.00;99.90;;;;;;4982281;28;20554;-85
2023/02/21 08:23:56;;;;;;;35.30;19.13;;;10.00;99.90;;;;;;4981315;28;20478;-84
2023/02/21 08:26:25;;;;;;;33.87;18.20;;;10.30;99.90;;;;;;4977016;28;20482;-83
2023/02/21 08:29:00;;;;;;;32.50;19.00;;;10.20;99.90;;;;;;4978402;28;20443;-83
2023/02/21 08:31:37;;;;;;;30.97;17.37;;;10.10;99.90;;;;;;4992550;28;20463;-84
2023/02/21 08:34:06;;;;;;;33.03;18.80;;;10.20;99.90;;;;;;4977165;28;20565;-83
2023/02/21 08:36:34;;;;;;;32.00;18.83;;;10.20;99.90;;;;;;4975508;28;20455;-85
2023/02/21 08:39:03;;;;;;;28.70;17.90;;;10.20;99.90;;;;;;4990903;28;20455;-83
2023/02/21 08:41:52;;;;;;;30.93;19.20;;;10.20;99.90;;;;;;4976021;28;20464;-84
2023/02/21 08:44:22;;;;;;;37.93;20.00;;;10.10;99.90;;;;;;4975460;28;20475;-84
2023/02/21 08:46:49;;;;;;;35.37;19.07;;;10.10;99.90;;;;;;4984930;28;20484;-84
2023/02/21 08:49:17;;;;;;;37.53;20.40;;;10.10;99.90;;;;;;4997599;28;20451;-85
2023/02/21 08:51:43;;;;;;;39.27;22.07;;;10.20;99.90;;;;;;4993047;28;20447;-84
2023/02/21 08:54:10;;;;;;;36.97;22.13;;;10.20;99.90;;;;;;4995179;28;20479;-85
2023/02/21 08:56:37;;;;;;;37.17;21.50;;;10.10;99.90;;;;;;4981839;28;20455;-84
2023/02/21 08:59:08;;;;;;;39.43;23.07;;;10.20;99.90;;;;;;4989770;28;20469;-85
2023/02/21 09:01:35;;;;;;;41.70;22.30;;;10.20;99.90;;;;;;4980545;28;20459;-84
2023/02/21 09:04:05;;;;;;;35.93;21.40;;;10.20;99.90;;;;;;4983295;28;20481;-84
2023/02/21 09:06:37;;;;;;;37.57;20.30;;;10.20;99.90;;;;;;5003657;28;20466;-86
2023/02/21 09:09:07;;;;;;;29.50;18.63;;;10.30;99.90;;;;;;4983407;28;20455;-86
2023/02/21 09:11:45;;;;;;;33.43;19.63;;;10.30;99.90;;;;;;4981353;28;20467;-86
2023/02/21 09:14:13;;;;;;;32.33;17.83;;;10.30;99.90;;;;;;4996345;28;20459;-85
2023/02/21 09:16:41;;;;;;;26.83;16.00;;;10.30;99.90;;;;;;4993051;28;20467;-84
2023/02/21 09:19:08;;;;;;;27.13;16.30;;;10.30;99.90;;;;;;4977752;28;20553;-83
2023/02/21 09:21:38;;;;;;;29.10;16.80;;;10.20;99.90;;;;;;4995895;28;20454;-83
2023/02/21 09:24:06;;;;;;;40.43;22.00;;;10.50;99.90;;;;;;4979517;28;20475;-86
2023/02/21 09:26:34;;;;;;;32.63;19.30;;;10.90;99.90;;;;;;5002599;28;20490;-84
2023/02/21 09:29:11;;;;;;;31.57;17.40;;;11.20;99.90;;;;;;5010286;28;20454;-85
2023/02/21 09:31:51;;;;;;;30.90;18.30;;;10.80;99.90;;;;;;5013572;28;20474;-88
2023/02/21 09:34:47;;;;;;;35.33;20.53;;;10.60;99.90;;;;;;5006520;28;20430;-87
2023/02/21 09:37:16;;;;;;;31.70;18.73;;;10.60;99.90;;;;;;5008993;28;20469;-86
2023/02/21 09:39:43;;;;;;;34.57;19.33;;;10.80;99.90;;;;;;5008470;28;20445;-87
2023/02/21 09:42:21;;;;;;;32.23;19.67;;;10.70;99.90;;;;;;4991940;28;20465;-88
2023/02/21 09:44:52;;;;;;;30.30;18.17;;;10.60;99.90;;;;;;5017286;28;20451;-85
2023/02/21 09:47:32;;;;;;;29.57;17.70;;;10.50;99.90;;;;;;4992739;28;20542;-84
2023/02/21 09:50:06;;;;;;;33.10;19.00;;;10.50;99.90;;;;;;4981603;28;20509;-84
2023/02/21 09:52:46;;;;;;;31.80;17.03;;;10.50;99.90;;;;;;4998270;28;20470;-86
2023/02/21 09:55:28;;;;;;;30.90;17.73;;;10.80;99.90;;;;;;5002470;28;20474;-85
2023/02/21 09:57:59;;;;;;;36.67;21.33;;;10.60;99.90;;;;;;4986264;28;20966;-85
2023/02/21 10:00:36;;;;;;;32.63;17.93;;;10.50;99.90;;;;;;4995024;28;20431;-85
2023/02/21 10:03:40;;;;;;;30.17;18.10;;;10.50;99.90;;;;;;4994247;28;20491;-85
2023/02/21 10:06:25;;;;;;;38.20;20.50;;;10.60;99.90;;;;;;5001897;28;20455;-83
2023/02/21 10:09:12;;;;;;;32.77;19.60;;;10.50;99.90;;;;;;5001082;28;20493;-84
2023/02/21 10:12:33;;;;;;;31.10;18.77;;;10.40;99.90;;;;;;5108227;23;20498;-85
2023/02/21 10:15:28;;;;;;;33.40;19.33;;;10.40;99.90;;;;;;4969380;28;20542;-86
2023/02/21 10:18:17;;;;;;;33.70;19.93;;;10.50;99.90;;;;;;5003574;28;20487;-86
2023/02/21 10:21:00;;;;;;;33.70;19.27;;;10.70;99.90;;;;;;4980863;28;20456;-85
2023/02/21 10:23:39;;;;;;;32.53;19.20;;;11.20;99.90;;;;;;5010300;28;20523;-84
2023/02/21 10:26:17;;;;;;;32.93;19.77;;;11.10;99.90;;;;;;5017392;28;20447;-87
2023/02/21 10:28:44;;;;;;;32.40;20.73;;;11.00;99.90;;;;;;4985400;28;20477;-86
2023/02/21 10:31:22;;;;;;;42.00;21.77;;;11.00;99.90;;;;;;4998030;28;20544;-87
2023/02/21 10:33:51;;;;;;;34.07;19.10;;;10.90;99.90;;;;;;4982484;28;20471;-88
2023/02/21 10:36:24;;;;;;;35.63;19.73;;;10.80;99.90;;;;;;5008963;28;20456;-85
2023/02/21 10:39:20;;;;;;;29.63;18.00;;;10.80;99.90;;;;;;4993934;28;20437;-86
2023/02/21 10:41:49;;;;;;;31.67;19.27;;;10.80;99.90;;;;;;5013240;28;20456;-86
2023/02/21 10:44:34;;;;;;;38.50;23.30;;;10.70;99.90;;;;;;5014838;28;20465;-87
2023/02/21 10:47:18;;;;;;;39.90;24.00;;;10.70;99.90;;;;;;4992943;28;20583;-87
2023/02/21 10:49:58;;;;;;;44.70;24.27;;;10.80;99.90;;;;;;5010140;28;20436;-85
2023/02/21 10:52:26;;;;;;;51.37;28.13;;;11.20;99.90;;;;;;4988839;28;20452;-85
2023/02/21 10:55:04;;;;;;;43.37;26.93;;;11.70;99.90;;;;;;4984180;28;20467;-85
2023/02/21 10:57:32;;;;;;;45.27;24.77;;;11.60;99.90;;;;;;4981256;28;20470;-85
2023/02/21 11:00:08;;;;;;;46.50;26.27;;;11.50;99.90;;;;;;4996508;28;20472;-85
2023/02/21 11:02:39;;;;;;;50.47;26.93;;;11.40;99.90;;;;;;4975149;28;20456;-84
2023/02/21 11:05:19;;;;;;;48.07;26.50;;;11.30;99.90;;;;;;4978397;28;20467;-84
2023/02/21 11:08:05;;;;;;;48.97;27.40;;;11.40;99.90;;;;;;4975433;28;20484;-83
2023/02/21 11:10:42;;;;;;;47.07;27.90;;;11.40;99.90;;;;;;4992099;28;20449;-83
2023/02/21 11:13:22;;;;;;;47.03;24.13;;;11.70;99.90;;;;;;4984762;28;20490;-90
2023/02/21 11:16:08;;;;;;;39.77;25.47;;;11.50;99.90;;;;;;4980575;28;20475;-83
2023/02/21 11:18:35;;;;;;;37.03;23.17;;;11.20;99.90;;;;;;4977909;28;20474;-83
2023/02/21 11:21:29;;;;;;;45.40;24.27;;;11.10;99.90;;;;;;4991111;28;20490;-83
2023/02/21 11:24:09;;;;;;;44.40;24.33;;;11.00;99.90;;;;;;4969756;28;20492;-85
2023/02/21 11:26:43;;;;;;;39.53;24.13;;;11.00;99.90;;;;;;4975746;28;20459;-85
2023/02/21 11:29:15;;;;;;;40.87;25.93;;;11.30;99.90;;;;;;4977999;28;20452;-84
2023/02/21 11:31:43;;;;;;;40.67;24.83;;;11.30;99.90;;;;;;4983869;28;20460;-84
2023/02/21 11:34:14;;;;;;;40.00;25.43;;;11.30;99.90;;;;;;4990547;28;20483;-85
2023/02/21 11:36:44;;;;;;;43.93;26.13;;;11.20;99.90;;;;;;4974689;28;20460;-84
2023/02/21 11:39:22;;;;;;;45.73;26.50;;;11.60;99.90;;;;;;4970153;28;20530;-84
2023/02/21 11:42:02;;;;;;;41.83;25.47;;;11.40;99.90;;;;;;4985765;28;20455;-84
2023/02/21 11:44:39;;;;;;;42.83;25.90;;;11.40;99.90;;;;;;4975767;28;20567;-86
2023/02/21 11:47:38;;;;;;;45.20;26.10;;;11.60;99.90;;;;;;5011089;28;20507;-87
2023/02/21 11:50:11;;;;;;;43.20;25.60;;;12.10;99.90;;;;;;4989936;28;20469;-87
2023/02/21 11:52:45;;;;;;;41.97;25.00;;;11.90;99.90;;;;;;5002326;28;20472;-87
2023/02/21 11:55:21;;;;;;;44.17;25.10;;;11.80;99.90;;;;;;4993562;28;20478;-85
2023/02/21 11:58:25;;;;;;;43.30;27.20;;;12.00;99.90;;;;;;5007980;28;20456;-84
2023/02/21 12:01:01;;;;;;;37.70;24.83;;;11.80;99.90;;;;;;4988850;28;20470;-82
2023/02/21 12:03:58;;;;;;;37.97;25.20;;;11.80;99.90;;;;;;4984281;28;20475;-84
2023/02/21 12:07:10;;;;;;;43.10;24.80;;;11.60;99.90;;;;;;4977918;28;20457;-85
2023/02/21 12:10:14;;;;;;;39.97;24.57;;;12.20;99.90;;;;;;4968969;28;20948;-85
2023/02/21 12:12:51;;;;;;;42.37;25.57;;;12.10;99.90;;;;;;4976347;28;20519;-86
2023/02/21 12:15:38;;;;;;;47.80;26.33;;;12.00;99.90;;;;;;4978775;28;20452;-86
2023/02/21 12:18:29;;;;;;;46.33;26.70;;;12.50;99.90;;;;;;4979697;28;20470;-87
2023/02/21 12:21:11;;;;;;;46.63;27.90;;;12.60;99.90;;;;;;4978578;28;20469;-85
2023/02/21 12:23:56;;;;;;;47.23;25.60;;;12.70;99.90;;;;;;4995353;28;21023;-85
2023/02/21 12:26:48;;;;;;;43.90;27.37;;;12.60;99.90;;;;;;4998596;28;20452;-85
2023/02/21 12:29:53;;;;;;;46.07;24.30;;;12.70;99.90;;;;;;4982577;28;21465;-85
2023/02/21 12:32:54;;;;;;;43.40;25.03;;;12.80;99.90;;;;;;4989360;28;20464;-84
2023/02/21 12:36:01;;;;;;;42.57;26.80;;;13.10;99.90;;;;;;4981667;28;20448;-85
2023/02/21 12:38:49;;;;;;;39.00;24.90;;;13.10;99.80;;;;;;4984661;28;20452;-84
2023/02/21 12:41:34;;;;;;;42.50;27.00;;;13.00;99.60;;;;;;4978852;28;20457;-84
2023/02/21 12:44:07;;;;;;;47.33;26.37;;;13.10;99.80;;;;;;4993414;28;20464;-86
2023/02/21 12:46:47;;;;;;;43.30;26.13;;;13.20;99.70;;;;;;4987199;28;20451;-84
2023/02/21 12:49:26;;;;;;;41.10;26.33;;;13.30;99.50;;;;;;4981280;28;20456;-86
2023/02/21 12:52:05;;;;;;;40.20;24.10;;;13.40;99.50;;;;;;5004178;28;20503;-84
2023/02/21 12:54:41;;;;;;;43.50;25.70;;;13.20;99.50;;;;;;4982195;28;20463;-82
2023/02/21 12:57:49;;;;;;;42.83;27.17;;;13.20;99.60;;;;;;4985483;28;20467;-83
2023/02/21 13:00:21;;;;;;;41.83;24.77;;;13.40;99.60;;;;;;4982584;28;20459;-83
2023/02/21 13:03:16;;;;;;;41.43;26.90;;;13.70;98.80;;;;;;4979736;28;20483;-85
2023/02/21 13:05:50;;;;;;;40.77;25.37;;;13.80;98.40;;;;;;4985083;28;20456;-85
2023/02/21 13:08:33;;;;;;;46.73;26.83;;;13.80;98.80;;;;;;4976725;28;20566;-87
2023/02/21 13:11:17;;;;;;;42.87;26.00;;;14.00;98.40;;;;;;4991617;28;21150;-86
2023/02/21 13:13:44;;;;;;;43.53;27.00;;;14.10;98.10;;;;;;4979272;28;20530;-85
2023/02/21 13:16:13;;;;;;;42.63;26.47;;;14.00;97.80;;;;;;4995342;28;20527;-86
2023/02/21 13:18:58;;;;;;;47.87;27.50;;;13.90;97.80;;;;;;4970931;28;20465;-84
2023/02/21 13:21:51;;;;;;;39.60;24.50;;;13.70;98.20;;;;;;4975999;28;20451;-85
2023/02/21 13:24:37;;;;;;;38.60;25.20;;;13.90;98.40;;;;;;4982050;28;20521;-85
2023/02/21 13:27:22;;;;;;;47.00;27.90;;;13.90;98.40;;;;;;4995692;28;20456;-85
2023/02/21 13:29:50;;;;;;;41.07;25.67;;;14.00;98.30;;;;;;4989547;28;20524;-84
2023/02/21 13:32:19;;;;;;;37.53;23.70;;;14.20;98.10;;;;;;4992731;28;20823;-85
2023/02/21 13:34:57;;;;;;;43.20;25.03;;;14.30;97.50;;;;;;4975490;28;20506;-86
2023/02/21 13:37:29;;;;;;;37.37;24.40;;;14.20;97.40;;;;;;4979138;28;20452;-84
2023/02/21 13:40:06;;;;;;;42.80;26.30;;;13.80;98.00;;;;;;4971047;28;20834;-84
2023/02/21 13:42:37;;;;;;;41.70;24.10;;;14.10;98.30;;;;;;4995972;28;20459;-84
2023/02/21 13:45:22;;;;;;;47.67;26.77;;;14.40;97.70;;;;;;4978905;28;20470;-85
2023/02/21 13:47:52;;;;;;;44.93;27.33;;;14.30;97.40;;;;;;4992156;28;20482;-84
2023/02/21 13:50:35;;;;;;;43.13;27.10;;;14.20;97.50;;;;;;4975814;28;21032;-83
2023/02/21 13:53:23;;;;;;;42.77;24.17;;;14.20;97.60;;;;;;4986611;28;20475;-84
2023/02/21 13:55:59;;;;;;;45.67;26.00;;;14.20;97.60;;;;;;4991152;28;20529;-84
2023/02/21 13:58:35;;;;;;;39.43;25.87;;;14.10;97.90;;;;;;4994432;28;20459;-84
2023/02/21 14:01:16;;;;;;;41.23;25.27;;;14.00;97.80;;;;;;4979254;28;20515;-84
2023/02/21 14:03:44;;;;;;;43.17;26.40;;;14.10;98.00;;;;;;4977574;28;20565;-86
2023/02/21 14:06:10;;;;;;;46.40;26.83;;;13.90;98.00;;;;;;4981137;28;20460;-84
2023/02/21 14:08:44;;;;;;;45.07;26.50;;;13.70;98.30;;;;;;4977880;28;20496;-84
2023/02/21 14:11:17;;;;;;;43.93;25.77;;;14.10;98.30;;;;;;4980282;28;20826;-84
2023/02/21 14:13:52;;;;;;;41.63;24.80;;;14.00;97.80;;;;;;4979110;28;20473;-87
2023/02/21 14:16:31;;;;;;;43.90;26.30;;;14.00;98.00;;;;;;4979314;28;20449;-85
2023/02/21 14:19:06;;;;;;;47.93;26.87;;;13.90;98.10;;;;;;4979560;28;20524;-84
2023/02/21 14:21:46;;;;;;;42.33;25.83;;;14.00;98.40;;;;;;5000373;28;20455;-85
2023/02/21 14:24:20;;;;;;;43.47;25.57;;;14.00;98.30;;;;;;4980563;28;20559;-83
2023/02/21 14:27:04;;;;;;;46.97;28.00;;;14.10;98.10;;;;;;4995503;28;20476;-84
2023/02/21 14:29:32;;;;;;;47.67;27.20;;;14.10;98.00;;;;;;4990625;28;21166;-84
2023/02/21 14:32:02;;;;;;;45.40;27.30;;;14.00;98.10;;;;;;4996197;28;20448;-83
2023/02/21 14:34:48;;;;;;;48.57;28.53;;;13.80;98.40;;;;;;4979671;28;20476;-84
2023/02/21 14:37:21;;;;;;;46.60;26.77;;;13.90;98.50;;;;;;4979066;28;20474;-83
2023/02/21 14:40:11;;;;;;;56.47;29.03;;;13.80;98.50;;;;;;4991704;28;20815;-85
2023/02/21 14:42:49;;;;;;;50.40;30.77;;;13.60;98.60;;;;;;4988831;28;20999;-86
2023/02/21 14:45:25;;;;;;;51.10;28.13;;;13.40;99.30;;;;;;4984371;28;20451;-85
2023/02/21 14:48:23;;;;;;;48.17;27.77;;;13.40;99.50;;;;;;4986898;28;20612;-84
2023/02/21 14:51:08;;;;;;;51.93;29.00;;;13.40;99.50;;;;;;4999514;28;20498;-85
2023/02/21 14:53:57;;;;;;;52.80;28.77;;;13.40;99.60;;;;;;4986610;28;20460;-86
2023/02/21 14:56:39;;;;;;;55.53;28.27;;;13.40;99.60;;;;;;5006018;28;20496;-86
2023/02/21 14:59:13;;;;;;;52.87;28.67;;;13.30;99.50;;;;;;5002842;28;20462;-89
2023/02/21 15:04:26;;;;;;;51.30;28.60;;;13.00;99.90;;;;;;5013689;28;20455;-86
2023/02/21 15:07:23;;;;;;;53.50;30.07;;;13.20;99.90;;;;;;5091360;23;20542;-86
2023/02/21 15:10:12;;;;;;;57.13;31.73;;;13.10;99.90;;;;;;5016209;28;20466;-88
2023/02/21 15:12:43;;;;;;;52.30;28.60;;;13.00;99.90;;;;;;5008360;28;20459;-83
2023/02/21 15:15:26;;;;;;;54.07;31.40;;;12.90;99.90;;;;;;5002034;28;20463;-84
2023/02/21 15:18:08;;;;;;;52.90;28.33;;;12.90;99.90;;;;;;5015831;28;20463;-83
2023/02/21 15:23:28;;;;;;;58.23;32.17;;;12.90;99.90;;;;;;5026879;23;20480;-84
2023/02/21 15:25:57;;;;;;;51.57;31.03;;;12.90;99.90;;;;;;4993140;28;20494;-85
2023/02/21 15:31:55;;;;;;;59.57;32.03;;;12.90;99.90;;;;;;5170626;23;20479;-85